createdAt,value
2019-01-13T00:00:51.649Z,88.10
2019-01-13T00:02:55.324Z,88.40
2019-01-13T00:04:59.002Z,88.40
2019-01-13T00:07:02.665Z,87.70
2019-01-13T00:09:07.356Z,88.20
2019-01-13T00:11:11.027Z,87.80
2019-01-13T00:13:14.700Z,87.00
2019-01-13T00:15:18.440Z,88.10
2019-01-13T00:17:22.135Z,88.60
2019-01-13T00:19:25.783Z,88.90
2019-01-13T00:21:29.511Z,88.50
2019-01-13T00:23:33.198Z,88.10
2019-01-13T00:25:36.857Z,87.40
2019-01-13T00:27:40.636Z,87.60
2019-01-13T00:29:44.311Z,87.60
2019-01-13T00:31:47.968Z,87.80
2019-01-13T00:33:51.643Z,88.60
2019-01-13T00:35:55.326Z,89.80
2019-01-13T00:37:58.982Z,89.00
2019-01-13T00:40:02.674Z,88.60
2019-01-13T00:42:06.344Z,88.70
2019-01-13T00:44:10.036Z,88.10
2019-01-13T00:46:13.681Z,88.00
2019-01-13T00:48:17.355Z,88.70
2019-01-13T00:50:21.143Z,89.40
2019-01-13T00:52:24.811Z,88.30
2019-01-13T00:54:28.466Z,88.80
2019-01-13T00:56:32.148Z,88.90
2019-01-13T00:58:35.801Z,89.20
2019-01-13T01:00:39.472Z,89.60
2019-01-13T01:02:43.243Z,89.00
2019-01-13T01:04:46.927Z,88.60
2019-01-13T01:06:50.610Z,89.00
2019-01-13T01:08:54.270Z,89.40
2019-01-13T01:10:57.963Z,90.00
2019-01-13T01:13:01.635Z,90.30
2019-01-13T01:15:08.893Z,90.00
2019-01-13T01:17:12.572Z,90.50
2019-01-13T01:19:16.348Z,90.20
2019-01-13T01:21:20.027Z,90.10
2019-01-13T01:23:23.701Z,90.10
2019-01-13T01:25:27.378Z,90.30
2019-01-13T01:27:31.108Z,90.30
2019-01-13T01:29:34.798Z,90.00
2019-01-13T01:31:38.484Z,90.20
2019-01-13T01:33:42.131Z,90.40
2019-01-13T01:35:45.899Z,91.00
2019-01-13T01:37:49.686Z,91.50
2019-01-13T01:39:53.368Z,90.90
2019-01-13T01:41:57.014Z,91.10
2019-01-13T01:44:00.696Z,92.40
2019-01-13T01:46:04.350Z,91.60
2019-01-13T01:48:08.027Z,91.80
2019-01-13T01:50:13.381Z,91.60
2019-01-13T01:52:17.082Z,91.80
2019-01-13T01:54:20.730Z,91.60
2019-01-13T01:56:24.418Z,91.90
2019-01-13T01:58:28.138Z,91.50
2019-01-13T02:00:31.796Z,92.40
2019-01-13T02:02:35.445Z,91.90
2019-01-13T02:04:39.185Z,92.50
2019-01-13T02:06:42.854Z,92.00
2019-01-13T02:08:46.543Z,92.70
2019-01-13T02:10:50.210Z,92.90
2019-01-13T02:12:53.969Z,92.90
2019-01-13T02:14:57.728Z,93.70
2019-01-13T02:17:01.397Z,93.50
2019-01-13T02:19:05.079Z,93.20
2019-01-13T02:21:08.734Z,93.10
2019-01-13T02:23:12.393Z,93.90
2019-01-13T02:25:19.046Z,94.30
2019-01-13T02:27:22.711Z,94.30
2019-01-13T02:29:26.385Z,94.20
2019-01-13T02:31:30.043Z,94.20
2019-01-13T02:33:33.699Z,94.60
2019-01-13T02:35:37.388Z,94.00
2019-01-13T02:37:41.058Z,94.40
2019-01-13T02:39:44.847Z,95.20
2019-01-13T02:41:48.589Z,95.60
2019-01-13T02:43:52.253Z,95.30
2019-01-13T02:45:55.935Z,94.30
2019-01-13T02:47:59.616Z,94.60
2019-01-13T02:50:04.698Z,94.70
2019-01-13T02:52:08.354Z,95.00
2019-01-13T02:54:12.011Z,95.10
2019-01-13T02:56:15.707Z,95.10
2019-01-13T02:58:19.523Z,94.10
2019-01-13T03:00:24.795Z,94.20
2019-01-13T03:02:28.443Z,93.80
2019-01-13T03:04:32.097Z,93.60
2019-01-13T03:06:35.787Z,93.90
2019-01-13T03:08:39.450Z,93.80
2019-01-13T03:10:43.123Z,94.10
2019-01-13T03:12:46.784Z,94.30
2019-01-13T03:14:50.484Z,95.00
2019-01-13T03:16:54.172Z,94.80
2019-01-13T03:18:57.838Z,94.50
2019-01-13T03:21:01.524Z,94.40
2019-01-13T03:23:05.182Z,94.50
2019-01-13T03:25:12.162Z,94.20
2019-01-13T03:27:16.052Z,94.30
2019-01-13T03:29:20.007Z,93.90
2019-01-13T03:31:23.704Z,93.40
2019-01-13T03:33:27.424Z,93.40
2019-01-13T03:35:31.086Z,94.00
2019-01-13T03:37:34.795Z,94.60
2019-01-13T03:39:38.438Z,94.40
2019-01-13T03:41:42.130Z,94.10
2019-01-13T03:43:45.774Z,93.40
2019-01-13T03:45:49.427Z,94.20
2019-01-13T03:47:53.123Z,95.00
2019-01-13T03:49:56.766Z,94.50
2019-01-13T03:52:00.419Z,94.20
2019-01-13T03:54:04.116Z,93.80
2019-01-13T03:56:07.771Z,93.80
2019-01-13T03:58:11.458Z,93.70
2019-01-13T04:00:17.890Z,94.50
2019-01-13T04:02:21.546Z,94.40
2019-01-13T04:04:25.227Z,93.90
2019-01-13T04:06:28.882Z,93.40
2019-01-13T04:08:32.580Z,92.70
2019-01-13T04:10:36.493Z,92.60
2019-01-13T04:12:40.198Z,93.00
2019-01-13T04:14:43.901Z,93.70
2019-01-13T04:16:48.004Z,93.50
2019-01-13T04:18:51.682Z,93.70
2019-01-13T04:20:55.339Z,93.50
2019-01-13T04:22:58.989Z,93.80
2019-01-13T04:25:02.698Z,93.70
2019-01-13T04:27:06.439Z,93.10
2019-01-13T04:29:10.132Z,92.80
2019-01-13T04:31:13.779Z,93.00
2019-01-13T04:33:17.430Z,93.40
2019-01-13T04:35:21.121Z,92.90
2019-01-13T04:37:24.774Z,93.00
2019-01-13T04:39:28.464Z,93.10
2019-01-13T04:41:32.124Z,93.50
2019-01-13T04:43:35.809Z,93.80
2019-01-13T04:45:39.473Z,93.80
2019-01-13T04:47:43.137Z,93.70
2019-01-13T04:49:46.803Z,93.90
2019-01-13T04:51:50.462Z,93.40
2019-01-13T04:53:54.327Z,94.10
2019-01-13T04:55:58.015Z,93.60
2019-01-13T04:58:01.680Z,94.30
2019-01-13T05:00:19.534Z,93.90
2019-01-13T05:02:23.186Z,93.30
2019-01-13T05:04:26.871Z,92.80
2019-01-13T05:06:30.522Z,92.50
2019-01-13T05:08:34.185Z,93.20
2019-01-13T05:10:37.856Z,93.10
2019-01-13T05:12:41.511Z,93.20
2019-01-13T05:14:45.182Z,93.80
2019-01-13T05:16:48.891Z,94.10
2019-01-13T05:18:52.744Z,93.70
2019-01-13T05:20:56.452Z,94.00
2019-01-13T05:23:00.163Z,93.30
2019-01-13T05:25:04.854Z,92.70
2019-01-13T05:27:08.538Z,92.70
2019-01-13T05:29:12.198Z,93.40
2019-01-13T05:31:15.971Z,93.50
2019-01-13T05:33:19.626Z,93.70
2019-01-13T05:35:23.283Z,93.70
2019-01-13T05:37:26.969Z,93.40
2019-01-13T05:39:30.629Z,93.50
2019-01-13T05:41:34.465Z,94.10
2019-01-13T05:43:38.168Z,94.80
2019-01-13T05:45:41.828Z,95.30
2019-01-13T05:47:45.511Z,95.20
2019-01-13T05:49:49.167Z,94.00
2019-01-13T05:51:52.970Z,93.80
2019-01-13T05:53:56.631Z,93.30
2019-01-13T05:56:00.282Z,93.60
2019-01-13T05:58:03.966Z,94.40
2019-01-13T06:00:18.508Z,95.10
2019-01-13T06:02:22.192Z,95.10
2019-01-13T06:04:25.951Z,94.60
2019-01-13T06:06:29.735Z,93.80
2019-01-13T06:08:33.488Z,94.30
2019-01-13T06:10:37.149Z,94.60
2019-01-13T06:12:40.953Z,94.70
2019-01-13T06:14:44.606Z,93.90
2019-01-13T06:16:48.311Z,93.10
2019-01-13T06:18:52.018Z,93.30
2019-01-13T06:20:55.674Z,93.90
2019-01-13T06:22:59.349Z,93.30
2019-01-13T06:25:02.996Z,92.70
2019-01-13T06:27:06.672Z,92.40
2019-01-13T06:29:10.341Z,92.00
2019-01-13T06:31:13.995Z,91.70
2019-01-13T06:33:17.698Z,91.60
2019-01-13T06:35:21.350Z,91.40
2019-01-13T06:37:25.006Z,91.10
2019-01-13T06:39:28.684Z,90.40
2019-01-13T06:41:32.338Z,90.20
2019-01-13T06:43:36.018Z,90.20
2019-01-13T06:45:39.721Z,90.20
2019-01-13T06:47:43.419Z,90.70
2019-01-13T06:49:47.094Z,90.60
2019-01-13T06:51:50.754Z,90.80
2019-01-13T06:53:54.462Z,90.60
2019-01-13T06:55:58.127Z,90.30
2019-01-13T06:58:01.772Z,90.20
2019-01-13T07:00:11.479Z,90.10
2019-01-13T07:02:15.152Z,90.20
2019-01-13T07:04:18.973Z,90.30
2019-01-13T07:06:22.663Z,90.10
2019-01-13T07:08:26.318Z,90.30
2019-01-13T07:10:29.999Z,90.60
2019-01-13T07:12:33.662Z,90.70
2019-01-13T07:14:37.349Z,90.90
2019-01-13T07:16:41.005Z,91.20
2019-01-13T07:18:44.675Z,91.30
2019-01-13T07:20:48.372Z,91.60
2019-01-13T07:22:52.020Z,91.30
2019-01-13T07:24:55.698Z,91.30
2019-01-13T07:26:59.459Z,91.30
2019-01-13T07:29:03.110Z,91.00
2019-01-13T07:31:06.785Z,90.70
2019-01-13T07:33:10.459Z,90.80
2019-01-13T07:35:14.129Z,90.50
2019-01-13T07:37:17.918Z,90.30
2019-01-13T07:39:21.582Z,90.40
2019-01-13T07:41:25.274Z,90.30
2019-01-13T07:43:28.918Z,90.40
2019-01-13T07:45:32.615Z,90.80
2019-01-13T07:47:36.286Z,90.90
2019-01-13T07:49:39.947Z,90.70
2019-01-13T07:51:43.811Z,90.50
2019-01-13T07:53:47.487Z,90.40
2019-01-13T07:55:51.161Z,90.40
2019-01-13T07:57:54.910Z,90.10
2019-01-13T07:59:58.712Z,90.10
2019-01-13T08:02:02.422Z,90.30
2019-01-13T08:04:06.262Z,90.60
2019-01-13T08:06:09.944Z,90.30
2019-01-13T08:08:13.610Z,90.40
2019-01-13T08:10:17.279Z,90.20
2019-01-13T08:12:20.985Z,90.20
2019-01-13T08:14:24.751Z,90.20
2019-01-13T08:16:28.412Z,90.00
2019-01-13T08:18:32.100Z,90.10
2019-01-13T08:20:35.782Z,90.30
2019-01-13T08:22:39.454Z,90.20
2019-01-13T08:24:43.201Z,90.30
2019-01-13T08:26:46.856Z,90.10
2019-01-13T08:28:50.533Z,90.20
2019-01-13T08:30:54.213Z,89.50
2019-01-13T08:32:58.126Z,89.70
2019-01-13T08:35:01.871Z,89.50
2019-01-13T08:37:05.525Z,89.30
2019-01-13T08:39:09.197Z,89.00
2019-01-13T08:41:13.062Z,89.00
2019-01-13T08:43:16.758Z,89.20
2019-01-13T08:45:20.962Z,89.60
2019-01-13T08:47:24.616Z,90.00
2019-01-13T08:49:28.305Z,88.60
2019-01-13T08:51:32.166Z,89.40
2019-01-13T08:53:35.891Z,90.20
2019-01-13T08:55:39.657Z,90.40
2019-01-13T08:57:43.424Z,90.50
2019-01-13T08:59:47.103Z,90.70
2019-01-13T09:01:50.773Z,90.90
2019-01-13T09:03:54.427Z,91.10
2019-01-13T09:05:58.078Z,90.80
2019-01-13T09:08:01.722Z,91.00
2019-01-13T09:10:08.364Z,91.30
2019-01-13T09:12:12.020Z,90.90
2019-01-13T09:14:15.806Z,90.70
2019-01-13T09:16:19.466Z,90.80
2019-01-13T09:18:23.123Z,90.70
2019-01-13T09:20:28.324Z,90.50
2019-01-13T09:22:32.082Z,90.30
2019-01-13T09:24:35.761Z,90.60
2019-01-13T09:26:39.451Z,90.30
2019-01-13T09:28:43.124Z,90.60
2019-01-13T09:30:46.798Z,90.40
2019-01-13T09:32:50.446Z,90.20
2019-01-13T09:34:54.215Z,90.50
2019-01-13T09:36:58.029Z,90.40
2019-01-13T09:39:01.691Z,90.90
2019-01-13T09:41:05.471Z,91.00
2019-01-13T09:43:09.157Z,91.30
2019-01-13T09:45:12.930Z,90.90
2019-01-13T09:47:16.682Z,90.70
2019-01-13T09:49:20.358Z,91.00
2019-01-13T09:51:24.148Z,90.90
2019-01-13T09:53:27.803Z,90.80
2019-01-13T09:55:31.489Z,90.90
2019-01-13T09:57:35.171Z,90.90
2019-01-13T09:59:38.830Z,91.20
2019-01-13T10:01:42.603Z,90.90
2019-01-13T10:03:46.257Z,90.80
2019-01-13T10:05:53.634Z,90.70
2019-01-13T10:07:57.451Z,90.90
2019-01-13T10:10:01.096Z,90.80
2019-01-13T10:12:05.243Z,91.00
2019-01-13T10:14:08.902Z,90.40
2019-01-13T10:16:12.566Z,90.30
2019-01-13T10:18:16.246Z,90.10
2019-01-13T10:20:19.929Z,90.10
2019-01-13T10:22:23.598Z,90.20
2019-01-13T10:24:27.294Z,90.00
2019-01-13T10:26:30.944Z,89.30
2019-01-13T10:28:34.635Z,89.60
2019-01-13T10:30:38.408Z,89.80
2019-01-13T10:32:42.087Z,90.10
2019-01-13T10:34:45.756Z,90.40
2019-01-13T10:36:49.462Z,90.50
2019-01-13T10:38:53.197Z,90.40
2019-01-13T10:40:56.857Z,90.50
2019-01-13T10:43:00.754Z,90.50
2019-01-13T10:45:07.197Z,90.50
2019-01-13T10:47:10.858Z,90.60
2019-01-13T10:49:14.544Z,90.40
2019-01-13T10:51:18.207Z,90.10
2019-01-13T10:53:21.982Z,90.30
2019-01-13T10:55:25.671Z,90.80
2019-01-13T10:57:29.326Z,90.70
2019-01-13T10:59:33.030Z,90.60
2019-01-13T11:01:36.683Z,90.50
2019-01-13T11:03:40.345Z,90.50
2019-01-13T11:05:44.027Z,90.80
2019-01-13T11:07:47.898Z,90.70
2019-01-13T11:09:51.584Z,91.10
2019-01-13T11:11:55.275Z,91.00
2019-01-13T11:14:01.710Z,90.90
2019-01-13T11:16:07.676Z,90.60
2019-01-13T11:18:11.333Z,90.30
2019-01-13T11:20:20.629Z,90.40
2019-01-13T11:22:24.275Z,90.70
2019-01-13T11:24:28.031Z,90.60
2019-01-13T11:26:31.907Z,90.60
2019-01-13T11:28:35.566Z,90.70
2019-01-13T11:30:39.268Z,90.00
2019-01-13T11:32:42.932Z,90.50
2019-01-13T11:34:46.598Z,90.60
2019-01-13T11:36:50.291Z,90.60
2019-01-13T11:38:53.951Z,90.70
2019-01-13T11:40:57.640Z,90.50
2019-01-13T11:43:01.304Z,90.30
2019-01-13T11:45:07.365Z,90.00
2019-01-13T11:47:11.039Z,90.10
2019-01-13T11:49:14.706Z,90.10
2019-01-13T11:51:18.412Z,90.10
2019-01-13T11:53:22.062Z,90.00
2019-01-13T11:55:25.717Z,89.50
2019-01-13T11:57:29.413Z,89.50
2019-01-13T11:59:33.155Z,90.00
2019-01-13T12:01:36.855Z,90.30
2019-01-13T12:03:40.542Z,90.50
2019-01-13T12:05:44.204Z,90.10
2019-01-13T12:07:48.001Z,90.20
2019-01-13T12:09:51.686Z,89.90
2019-01-13T12:11:55.473Z,89.10
2019-01-13T12:13:59.209Z,89.00
2019-01-13T12:16:02.888Z,88.90
2019-01-13T12:18:06.575Z,89.40
2019-01-13T12:20:13.344Z,90.00
2019-01-13T12:22:16.998Z,90.20
2019-01-13T12:24:20.682Z,89.70
2019-01-13T12:26:24.336Z,89.10
2019-01-13T12:28:28.194Z,88.10
2019-01-13T12:30:32.566Z,88.00
2019-01-13T12:32:36.246Z,88.30
2019-01-13T12:34:39.923Z,88.60
2019-01-13T12:36:43.587Z,89.30
2019-01-13T12:38:47.289Z,88.80
2019-01-13T12:40:50.944Z,87.90
2019-01-13T12:42:54.697Z,88.00
2019-01-13T12:44:58.491Z,88.00
2019-01-13T12:47:02.154Z,87.60
2019-01-13T12:49:05.910Z,87.50
2019-01-13T12:51:09.684Z,88.10
2019-01-13T12:53:13.352Z,88.70
2019-01-13T12:55:17.056Z,88.60
2019-01-13T12:57:20.710Z,88.50
2019-01-13T12:59:24.387Z,88.50
2019-01-13T13:01:28.680Z,89.50
2019-01-13T13:03:32.358Z,89.50
2019-01-13T13:05:36.068Z,89.70
2019-01-13T13:07:39.727Z,90.00
2019-01-13T13:09:43.639Z,90.20
2019-01-13T13:11:47.313Z,90.00
2019-01-13T13:13:50.992Z,89.60
2019-01-13T13:15:54.675Z,89.30
2019-01-13T13:17:58.361Z,89.20
2019-01-13T13:20:02.040Z,89.50
2019-01-13T13:22:05.844Z,89.10
2019-01-13T13:24:09.517Z,89.40
2019-01-13T13:26:13.261Z,90.10
2019-01-13T13:28:16.923Z,90.10
2019-01-13T13:30:25.943Z,90.10
2019-01-13T13:32:29.683Z,90.00
2019-01-13T13:34:33.456Z,90.40
2019-01-13T13:36:37.148Z,90.80
2019-01-13T13:38:40.840Z,91.00
2019-01-13T13:40:44.526Z,91.10
2019-01-13T13:42:48.190Z,90.80
2019-01-13T13:44:51.868Z,91.10
2019-01-13T13:46:55.543Z,91.50
2019-01-13T13:48:59.211Z,91.40
2019-01-13T13:51:03.090Z,91.50
2019-01-13T13:53:07.085Z,91.60
2019-01-13T13:55:11.341Z,92.60
2019-01-13T13:57:15.191Z,92.30
2019-01-13T13:59:18.843Z,92.40
2019-01-13T14:01:22.534Z,92.70
2019-01-13T14:03:26.313Z,92.30
2019-01-13T14:05:30.017Z,92.30
2019-01-13T14:07:33.676Z,92.10
2019-01-13T14:09:37.339Z,91.80
2019-01-13T14:11:40.996Z,91.90
2019-01-13T14:13:44.675Z,91.70
2019-01-13T14:15:48.341Z,92.50
2019-01-13T14:17:52.054Z,92.30
2019-01-13T14:20:16.074Z,92.40
2019-01-13T14:22:19.733Z,91.60
2019-01-13T14:24:23.543Z,91.90
2019-01-13T14:26:27.199Z,91.80
2019-01-13T14:28:30.876Z,91.70
2019-01-13T14:30:34.553Z,92.10
2019-01-13T14:32:38.206Z,92.30
2019-01-13T14:34:41.896Z,92.40
2019-01-13T14:36:45.756Z,92.10
2019-01-13T14:38:49.504Z,92.00
2019-01-13T14:40:53.168Z,92.20
2019-01-13T14:42:56.846Z,92.00
2019-01-13T14:45:00.614Z,92.10
2019-01-13T14:47:04.359Z,92.20
2019-01-13T14:49:08.239Z,92.00
2019-01-13T14:51:11.907Z,91.60
2019-01-13T14:53:15.677Z,91.20
2019-01-13T14:55:19.643Z,91.20
2019-01-13T14:57:23.293Z,91.60
2019-01-13T14:59:26.972Z,91.60
2019-01-13T15:01:30.627Z,91.70
2019-01-13T15:03:34.293Z,92.30
2019-01-13T15:05:37.987Z,92.10
2019-01-13T15:07:42.035Z,91.80
2019-01-13T15:09:45.708Z,91.90
2019-01-13T15:11:49.399Z,91.70
2019-01-13T15:13:53.056Z,91.50
2019-01-13T15:15:58.465Z,92.20
2019-01-13T15:18:02.167Z,92.20
2019-01-13T15:20:16.998Z,92.50
2019-01-13T15:22:20.682Z,92.40
2019-01-13T15:24:24.483Z,92.50
2019-01-13T15:26:28.279Z,92.60
2019-01-13T15:28:31.933Z,93.00
2019-01-13T15:30:36.026Z,93.20
2019-01-13T15:32:40.006Z,93.10
2019-01-13T15:34:43.646Z,93.50
2019-01-13T15:36:47.338Z,93.60
2019-01-13T15:38:51.090Z,93.80
2019-01-13T15:40:54.754Z,93.70
2019-01-13T15:42:58.453Z,94.30
2019-01-13T15:45:02.104Z,94.10
2019-01-13T15:47:05.779Z,93.70
2019-01-13T15:49:09.459Z,93.80
2019-01-13T15:51:13.120Z,94.50
2019-01-13T15:53:16.882Z,95.30
2019-01-13T15:55:20.770Z,94.80
2019-01-13T15:57:25.379Z,94.90
2019-01-13T15:59:35.145Z,94.50
2019-01-13T16:01:38.814Z,94.20
2019-01-13T16:03:42.566Z,93.90
2019-01-13T16:05:46.216Z,94.70
2019-01-13T16:07:49.876Z,94.30
2019-01-13T16:09:54.479Z,94.40
2019-01-13T16:11:58.148Z,95.00
2019-01-13T16:14:01.933Z,95.90
2019-01-13T16:16:05.586Z,95.40
2019-01-13T16:18:09.253Z,95.10
2019-01-13T16:20:18.896Z,95.60
2019-01-13T16:22:22.553Z,95.50
2019-01-13T16:24:26.276Z,95.10
2019-01-13T16:26:29.918Z,95.10
2019-01-13T16:28:33.598Z,95.40
2019-01-13T16:30:37.292Z,95.20
2019-01-13T16:32:41.056Z,95.60
2019-01-13T16:34:44.816Z,95.20
2019-01-13T16:36:48.493Z,95.20
2019-01-13T16:38:52.160Z,95.20
2019-01-13T16:40:55.875Z,95.00
2019-01-13T16:42:59.682Z,95.40
2019-01-13T16:45:03.761Z,95.20
2019-01-13T16:47:07.571Z,94.70
2019-01-13T16:49:11.249Z,95.20
2019-01-13T16:51:14.943Z,95.20
2019-01-13T16:53:18.603Z,94.80
2019-01-13T16:55:22.851Z,94.50
2019-01-13T16:57:26.538Z,94.50
2019-01-13T16:59:30.203Z,93.90
2019-01-13T17:01:34.004Z,94.10
2019-01-13T17:03:37.669Z,94.30
2019-01-13T17:05:41.346Z,94.40
2019-01-13T17:07:45.119Z,94.00
2019-01-13T17:09:48.783Z,93.80
2019-01-13T17:11:52.486Z,92.90
2019-01-13T17:13:56.168Z,92.60
2019-01-13T17:15:59.949Z,92.60
2019-01-13T17:18:03.833Z,92.40
2019-01-13T17:20:10.650Z,92.40
2019-01-13T17:22:14.335Z,92.40
2019-01-13T17:24:18.055Z,92.40
2019-01-13T17:26:21.739Z,92.70
2019-01-13T17:28:25.426Z,92.40
2019-01-13T17:30:31.459Z,92.90
2019-01-13T17:32:35.159Z,92.90
2019-01-13T17:34:38.810Z,93.80
2019-01-13T17:36:42.479Z,94.00
2019-01-13T17:38:46.135Z,94.60
2019-01-13T17:40:49.787Z,94.40
2019-01-13T17:42:53.959Z,94.30
2019-01-13T17:44:57.633Z,95.40
2019-01-13T17:47:01.282Z,95.40
2019-01-13T17:49:05.028Z,95.10
2019-01-13T17:51:08.688Z,95.00
2019-01-13T17:53:12.467Z,95.30
2019-01-13T17:55:20.834Z,95.20
2019-01-13T17:57:24.492Z,94.60
2019-01-13T17:59:28.191Z,94.40
2019-01-13T18:01:31.872Z,94.10
2019-01-13T18:03:38.342Z,94.50
2019-01-13T18:05:42.005Z,94.60
2019-01-13T18:07:45.739Z,94.50
2019-01-13T18:09:49.419Z,94.60
2019-01-13T18:11:53.085Z,94.50
2019-01-13T18:13:56.795Z,94.50
2019-01-13T18:16:00.579Z,94.80
2019-01-13T18:18:04.275Z,94.40
2019-01-13T18:20:10.884Z,94.40
2019-01-13T18:22:14.538Z,93.30
2019-01-13T18:24:18.251Z,93.00
2019-01-13T18:26:21.907Z,93.00
2019-01-13T18:28:25.592Z,92.80
2019-01-13T18:30:29.371Z,92.50
2019-01-13T18:32:33.102Z,93.20
2019-01-13T18:34:36.815Z,92.80
2019-01-13T18:36:40.483Z,93.00
2019-01-13T18:38:44.241Z,93.00
2019-01-13T18:40:47.951Z,93.30
2019-01-13T18:42:51.740Z,94.50
2019-01-13T18:44:55.423Z,94.70
2019-01-13T18:46:59.083Z,94.50
2019-01-13T18:49:02.750Z,94.70
2019-01-13T18:51:06.430Z,95.40
2019-01-13T18:53:12.768Z,95.30
2019-01-13T18:55:16.466Z,94.90
2019-01-13T18:57:20.118Z,95.60
2019-01-13T18:59:23.778Z,96.10
2019-01-13T19:01:27.450Z,95.20
2019-01-13T19:03:31.112Z,94.90
2019-01-13T19:05:34.757Z,95.10
2019-01-13T19:07:38.457Z,95.10
2019-01-13T19:09:42.104Z,95.70
2019-01-13T19:11:46.000Z,96.10
2019-01-13T19:14:10.671Z,95.70
2019-01-13T19:16:17.297Z,95.50
2019-01-13T19:18:20.956Z,95.60
2019-01-13T19:20:24.655Z,96.50
2019-01-13T19:22:28.409Z,95.90
2019-01-13T19:24:32.106Z,96.20
2019-01-13T19:26:35.770Z,95.60
2019-01-13T19:28:39.539Z,96.10
2019-01-13T19:30:43.206Z,95.90
2019-01-13T19:32:46.891Z,95.70
2019-01-13T19:34:50.547Z,95.60
2019-01-13T19:36:54.255Z,95.50
2019-01-13T19:38:57.915Z,95.90
2019-01-13T19:41:01.677Z,96.40
2019-01-13T19:43:05.391Z,96.50
2019-01-13T19:45:12.245Z,97.20
2019-01-13T19:47:15.906Z,96.90
2019-01-13T19:49:19.710Z,96.40
2019-01-13T19:51:23.362Z,96.20
2019-01-13T19:53:27.054Z,95.90
2019-01-13T19:55:30.727Z,96.20
2019-01-13T19:57:34.526Z,95.90
2019-01-13T19:59:38.182Z,96.60
2019-01-13T20:01:41.882Z,96.70
2019-01-13T20:03:45.751Z,96.80
2019-01-13T20:05:49.405Z,96.30
2019-01-13T20:07:53.206Z,96.10
2019-01-13T20:09:56.886Z,96.40
2019-01-13T20:12:00.540Z,96.00
2019-01-13T20:14:04.440Z,96.20
2019-01-13T20:16:08.219Z,96.30
2019-01-13T20:18:12.028Z,96.50
2019-01-13T20:20:20.317Z,96.70
2019-01-13T20:22:24.118Z,96.60
2019-01-13T20:24:27.817Z,96.80
2019-01-13T20:26:31.483Z,97.00
2019-01-13T20:28:35.197Z,96.80
2019-01-13T20:30:39.075Z,96.20
2019-01-13T20:32:42.827Z,97.00
2019-01-13T20:34:46.541Z,96.70
2019-01-13T20:36:50.225Z,95.50
2019-01-13T20:38:53.904Z,95.50
2019-01-13T20:40:57.590Z,95.40
2019-01-13T20:43:01.259Z,95.80
2019-01-13T20:45:07.888Z,96.10
2019-01-13T20:47:11.554Z,95.60
2019-01-13T20:49:15.193Z,95.70
2019-01-13T20:51:18.956Z,95.90
2019-01-13T20:53:22.623Z,96.30
2019-01-13T20:55:26.318Z,96.20
2019-01-13T20:57:30.001Z,96.30
2019-01-13T20:59:33.677Z,96.20
2019-01-13T21:01:37.358Z,96.30
2019-01-13T21:03:41.022Z,96.00
2019-01-13T21:05:44.693Z,95.30
2019-01-13T21:07:48.349Z,96.30
2019-01-13T21:09:52.015Z,96.10
2019-01-13T21:11:55.725Z,96.70
2019-01-13T21:13:59.404Z,96.80
2019-01-13T21:16:03.079Z,97.50
2019-01-13T21:18:06.853Z,98.00
2019-01-13T21:20:11.331Z,97.40
2019-01-13T21:22:15.049Z,97.40
2019-01-13T21:24:18.719Z,97.60
2019-01-13T21:26:22.410Z,97.80
2019-01-13T21:28:26.064Z,98.10
2019-01-13T21:30:31.949Z,98.80
2019-01-13T21:32:35.642Z,99.00
2019-01-13T21:34:39.294Z,98.50
2019-01-13T21:36:43.013Z,98.00
2019-01-13T21:38:46.696Z,97.70
2019-01-13T21:40:50.475Z,97.70
2019-01-13T21:42:54.189Z,97.10
2019-01-13T21:44:57.833Z,97.30
2019-01-13T21:47:01.539Z,97.20
2019-01-13T21:49:05.183Z,96.90
2019-01-13T21:51:08.866Z,97.00
2019-01-13T21:53:12.533Z,97.20
2019-01-13T21:55:17.698Z,96.30
2019-01-13T21:57:21.388Z,96.70
2019-01-13T21:59:25.069Z,96.60
2019-01-13T22:01:35.169Z,96.70
2019-01-13T22:03:34.204Z,96.70
2019-01-13T22:05:41.185Z,96.20
2019-01-13T22:07:43.472Z,96.60
2019-01-13T22:09:47.223Z,96.50
2019-01-13T22:11:50.880Z,96.50
2019-01-13T22:13:54.563Z,96.80
2019-01-13T22:16:00.655Z,96.50
2019-01-13T22:18:04.335Z,96.50
2019-01-13T22:20:10.996Z,96.70
2019-01-13T22:22:14.653Z,96.90
2019-01-13T22:24:18.340Z,97.10
2019-01-13T22:26:22.003Z,96.30
2019-01-13T22:28:25.719Z,96.20
2019-01-13T22:30:29.580Z,96.10
2019-01-13T22:32:33.237Z,96.40
2019-01-13T22:34:36.930Z,96.50
2019-01-13T22:36:40.619Z,96.90
2019-01-13T22:38:44.279Z,97.00
2019-01-13T22:40:47.954Z,97.00
2019-01-13T22:42:51.614Z,97.40
2019-01-13T22:44:55.303Z,98.00
2019-01-13T22:46:58.959Z,97.70
2019-01-13T22:49:02.647Z,97.60
2019-01-13T22:51:06.791Z,97.30
2019-01-13T22:53:10.470Z,97.10
2019-01-13T22:55:14.282Z,97.00
2019-01-13T22:57:17.991Z,97.00
2019-01-13T22:59:21.643Z,96.50
2019-01-13T23:01:28.026Z,95.90
2019-01-13T23:03:31.763Z,96.00
2019-01-13T23:05:35.431Z,96.20
2019-01-13T23:07:39.191Z,97.00
2019-01-13T23:09:42.862Z,97.20
2019-01-13T23:11:46.544Z,97.00
2019-01-13T23:13:50.203Z,96.30
2019-01-13T23:15:53.890Z,97.10
2019-01-13T23:17:57.715Z,96.90
2019-01-13T23:20:01.365Z,96.10
2019-01-13T23:22:05.050Z,96.60
2019-01-13T23:24:09.495Z,96.60
2019-01-13T23:26:13.189Z,96.60
2019-01-13T23:28:16.882Z,96.00
2019-01-13T23:30:20.582Z,96.20
2019-01-13T23:32:24.311Z,96.10
2019-01-13T23:34:28.845Z,96.00
2019-01-13T23:36:32.626Z,95.80
2019-01-13T23:38:36.284Z,96.30
2019-01-13T23:40:40.782Z,96.70
2019-01-13T23:42:44.617Z,96.90
2019-01-13T23:44:48.261Z,96.60
2019-01-13T23:46:51.912Z,96.40
2019-01-13T23:48:57.166Z,97.20
2019-01-13T23:51:00.822Z,97.60
2019-01-13T23:53:04.598Z,98.10
2019-01-13T23:55:08.358Z,97.50
2019-01-13T23:57:12.034Z,97.20
2019-01-13T23:59:15.721Z,97.10
